sensor_id;sensor_type;location;lat;lon;timestamp;temperature;humidity
21271;DHT22;10795;50.796;3.860;2022-10-16T00:01:59;13.90;99.90
21271;DHT22;10795;50.796;3.860;2022-10-16T00:04:25;13.90;99.90
21271;DHT22;10795;50.796;3.860;2022-10-16T00:06:51;13.80;99.90
21271;DHT22;10795;50.796;3.860;2022-10-16T00:09:17;13.70;99.90
21271;DHT22;10795;50.796;3.860;2022-10-16T00:11:42;13.60;99.90
21271;DHT22;10795;50.796;3.860;2022-10-16T00:14:11;13.60;99.90
21271;DHT22;10795;50.796;3.860;2022-10-16T00:16:38;13.60;99.90
21271;DHT22;10795;50.796;3.860;2022-10-16T00:19:04;13.80;99.90
21271;DHT22;10795;50.796;3.860;2022-10-16T00:21:31;13.70;99.90
21271;DHT22;10795;50.796;3.860;2022-10-16T00:23:59;13.70;99.90
21271;DHT22;10795;50.796;3.860;2022-10-16T00:26:26;13.70;99.90
21271;DHT22;10795;50.796;3.860;2022-10-16T00:28:52;13.70;99.90
21271;DHT22;10795;50.796;3.860;2022-10-16T00:31:20;13.70;99.90
21271;DHT22;10795;50.796;3.860;2022-10-16T00:33:46;13.80;99.90
21271;DHT22;10795;50.796;3.860;2022-10-16T00:36:14;13.80;99.90
21271;DHT22;10795;50.796;3.860;2022-10-16T00:38:41;13.80;99.90
21271;DHT22;10795;50.796;3.860;2022-10-16T00:41:09;13.80;99.90
21271;DHT22;10795;50.796;3.860;2022-10-16T00:44:41;13.70;99.90
21271;DHT22;10795;50.796;3.860;2022-10-16T00:46:51;13.70;99.90
21271;DHT22;10795;50.796;3.860;2022-10-16T00:49:19;13.80;99.90
21271;DHT22;10795;50.796;3.860;2022-10-16T00:51:51;13.70;99.90
21271;DHT22;10795;50.796;3.860;2022-10-16T00:54:26;13.60;99.90
21271;DHT22;10795;50.796;3.860;2022-10-16T00:56:54;13.50;99.90
21271;DHT22;10795;50.796;3.860;2022-10-16T00:59:24;13.40;99.90
21271;DHT22;10795;50.796;3.860;2022-10-16T01:01:50;13.40;99.90
21271;DHT22;10795;50.796;3.860;2022-10-16T01:04:17;13.40;99.90
21271;DHT22;10795;50.796;3.860;2022-10-16T01:10:06;13.50;99.90
21271;DHT22;10795;50.796;3.860;2022-10-16T01:12:38;13.60;99.90
21271;DHT22;10795;50.796;3.860;2022-10-16T01:15:11;13.60;99.90
21271;DHT22;10795;50.796;3.860;2022-10-16T01:20:29;13.40;99.90
21271;DHT22;10795;50.796;3.860;2022-10-16T01:28:41;13.50;99.90
21271;DHT22;10795;50.796;3.860;2022-10-16T01:31:09;13.40;99.90
21271;DHT22;10795;50.796;3.860;2022-10-16T01:33:50;13.20;99.90
21271;DHT22;10795;50.796;3.860;2022-10-16T01:36:22;13.20;99.90
21271;DHT22;10795;50.796;3.860;2022-10-16T01:38:52;13.20;99.90
21271;DHT22;10795;50.796;3.860;2022-10-16T01:41:24;13.30;99.90
21271;DHT22;10795;50.796;3.860;2022-10-16T01:44:18;13.30;99.90
21271;DHT22;10795;50.796;3.860;2022-10-16T01:46:45;13.40;99.90
21271;DHT22;10795;50.796;3.860;2022-10-16T01:49:12;13.50;99.90
21271;DHT22;10795;50.796;3.860;2022-10-16T01:51:39;13.50;99.90
21271;DHT22;10795;50.796;3.860;2022-10-16T01:54:07;13.30;99.90
21271;DHT22;10795;50.796;3.860;2022-10-16T01:56:34;13.40;99.90
21271;DHT22;10795;50.796;3.860;2022-10-16T01:59:11;13.30;99.90
21271;DHT22;10795;50.796;3.860;2022-10-16T02:01:40;13.40;99.90
21271;DHT22;10795;50.796;3.860;2022-10-16T02:04:21;13.30;99.90
21271;DHT22;10795;50.796;3.860;2022-10-16T02:06:48;13.20;99.90
21271;DHT22;10795;50.796;3.860;2022-10-16T02:09:13;13.10;99.90
21271;DHT22;10795;50.796;3.860;2022-10-16T02:11:43;13.00;99.90
21271;DHT22;10795;50.796;3.860;2022-10-16T02:14:09;13.10;99.90
21271;DHT22;10795;50.796;3.860;2022-10-16T02:16:40;13.00;99.90
21271;DHT22;10795;50.796;3.860;2022-10-16T02:19:12;13.10;99.90
21271;DHT22;10795;50.796;3.860;2022-10-16T02:21:58;13.00;99.90
21271;DHT22;10795;50.796;3.860;2022-10-16T02:27:19;13.10;99.90
21271;DHT22;10795;50.796;3.860;2022-10-16T02:29:49;13.30;99.90
21271;DHT22;10795;50.796;3.860;2022-10-16T02:32:21;13.20;99.90
21271;DHT22;10795;50.796;3.860;2022-10-16T02:34:49;13.20;99.90
21271;DHT22;10795;50.796;3.860;2022-10-16T02:37:17;13.10;99.90
21271;DHT22;10795;50.796;3.860;2022-10-16T02:39:43;13.10;99.90
21271;DHT22;10795;50.796;3.860;2022-10-16T02:42:13;13.00;99.90
21271;DHT22;10795;50.796;3.860;2022-10-16T02:44:39;13.10;99.90
21271;DHT22;10795;50.796;3.860;2022-10-16T02:47:05;13.10;99.90
21271;DHT22;10795;50.796;3.860;2022-10-16T02:49:31;13.20;99.90
21271;DHT22;10795;50.796;3.860;2022-10-16T02:51:57;13.20;99.90
21271;DHT22;10795;50.796;3.860;2022-10-16T02:54:22;13.20;99.90
21271;DHT22;10795;50.796;3.860;2022-10-16T02:56:49;13.20;99.90
21271;DHT22;10795;50.796;3.860;2022-10-16T02:59:15;13.20;99.90
21271;DHT22;10795;50.796;3.860;2022-10-16T03:01:41;13.10;99.90
21271;DHT22;10795;50.796;3.860;2022-10-16T03:04:06;13.10;99.90
21271;DHT22;10795;50.796;3.860;2022-10-16T03:06:32;13.30;99.90
21271;DHT22;10795;50.796;3.860;2022-10-16T03:08:58;13.20;99.90
21271;DHT22;10795;50.796;3.860;2022-10-16T03:11:24;13.10;99.90
21271;DHT22;10795;50.796;3.860;2022-10-16T03:13:50;13.10;99.90
21271;DHT22;10795;50.796;3.860;2022-10-16T03:16:15;13.20;99.90
21271;DHT22;10795;50.796;3.860;2022-10-16T03:18:41;13.10;99.90
21271;DHT22;10795;50.796;3.860;2022-10-16T03:21:07;13.20;99.90
21271;DHT22;10795;50.796;3.860;2022-10-16T03:23:32;13.30;99.90
21271;DHT22;10795;50.796;3.860;2022-10-16T03:25:58;13.30;99.90
21271;DHT22;10795;50.796;3.860;2022-10-16T03:28:24;13.30;99.90
21271;DHT22;10795;50.796;3.860;2022-10-16T03:30:50;13.20;99.90
21271;DHT22;10795;50.796;3.860;2022-10-16T03:33:16;13.10;99.90
21271;DHT22;10795;50.796;3.860;2022-10-16T03:35:41;13.10;99.90
21271;DHT22;10795;50.796;3.860;2022-10-16T03:38:07;13.10;99.90
21271;DHT22;10795;50.796;3.860;2022-10-16T03:40:33;13.10;99.90
21271;DHT22;10795;50.796;3.860;2022-10-16T03:42:59;13.10;99.90
21271;DHT22;10795;50.796;3.860;2022-10-16T03:45:25;13.10;99.90
21271;DHT22;10795;50.796;3.860;2022-10-16T03:47:51;13.10;99.90
21271;DHT22;10795;50.796;3.860;2022-10-16T03:50:17;13.20;99.90
21271;DHT22;10795;50.796;3.860;2022-10-16T03:52:43;13.10;99.90
21271;DHT22;10795;50.796;3.860;2022-10-16T03:55:08;13.00;99.90
21271;DHT22;10795;50.796;3.860;2022-10-16T03:57:34;13.00;99.90
21271;DHT22;10795;50.796;3.860;2022-10-16T04:00:00;13.00;99.90
21271;DHT22;10795;50.796;3.860;2022-10-16T04:02:26;13.00;99.90
21271;DHT22;10795;50.796;3.860;2022-10-16T04:04:51;13.10;99.90
21271;DHT22;10795;50.796;3.860;2022-10-16T04:07:18;13.10;99.90
21271;DHT22;10795;50.796;3.860;2022-10-16T04:09:44;13.00;99.90
21271;DHT22;10795;50.796;3.860;2022-10-16T04:12:09;13.10;99.90
21271;DHT22;10795;50.796;3.860;2022-10-16T04:14:35;13.20;99.90
21271;DHT22;10795;50.796;3.860;2022-10-16T04:17:01;13.30;99.90
21271;DHT22;10795;50.796;3.860;2022-10-16T04:19:26;13.10;99.90
21271;DHT22;10795;50.796;3.860;2022-10-16T04:21:53;13.00;99.90
21271;DHT22;10795;50.796;3.860;2022-10-16T04:24:19;13.00;99.90
21271;DHT22;10795;50.796;3.860;2022-10-16T04:26:45;13.20;99.90
21271;DHT22;10795;50.796;3.860;2022-10-16T04:29:11;13.20;99.90
21271;DHT22;10795;50.796;3.860;2022-10-16T04:31:36;13.20;99.90
21271;DHT22;10795;50.796;3.860;2022-10-16T04:34:02;13.10;99.90
21271;DHT22;10795;50.796;3.860;2022-10-16T04:36:28;13.00;99.90
21271;DHT22;10795;50.796;3.860;2022-10-16T04:38:53;13.10;99.90
21271;DHT22;10795;50.796;3.860;2022-10-16T04:41:19;13.10;99.90
21271;DHT22;10795;50.796;3.860;2022-10-16T04:43:45;13.10;99.90
21271;DHT22;10795;50.796;3.860;2022-10-16T04:46:11;13.00;99.90
21271;DHT22;10795;50.796;3.860;2022-10-16T04:48:36;13.00;99.90
21271;DHT22;10795;50.796;3.860;2022-10-16T04:51:02;13.00;99.90
21271;DHT22;10795;50.796;3.860;2022-10-16T04:53:28;13.20;99.90
21271;DHT22;10795;50.796;3.860;2022-10-16T04:55:54;13.20;99.90
21271;DHT22;10795;50.796;3.860;2022-10-16T04:58:20;13.20;99.90
21271;DHT22;10795;50.796;3.860;2022-10-16T05:00:45;13.10;99.90
21271;DHT22;10795;50.796;3.860;2022-10-16T05:03:12;13.10;99.90
21271;DHT22;10795;50.796;3.860;2022-10-16T05:05:42;13.10;99.90
21271;DHT22;10795;50.796;3.860;2022-10-16T05:08:09;13.10;99.90
21271;DHT22;10795;50.796;3.860;2022-10-16T05:10:34;13.20;99.90
21271;DHT22;10795;50.796;3.860;2022-10-16T05:13:00;13.10;99.90
21271;DHT22;10795;50.796;3.860;2022-10-16T05:15:26;13.00;99.90
21271;DHT22;10795;50.796;3.860;2022-10-16T05:17:55;13.10;99.90
21271;DHT22;10795;50.796;3.860;2022-10-16T05:20:21;13.20;99.90
21271;DHT22;10795;50.796;3.860;2022-10-16T05:22:48;13.10;99.90
21271;DHT22;10795;50.796;3.860;2022-10-16T05:25:14;13.10;99.90
21271;DHT22;10795;50.796;3.860;2022-10-16T05:27:39;13.10;99.90
21271;DHT22;10795;50.796;3.860;2022-10-16T05:30:06;13.10;99.90
21271;DHT22;10795;50.796;3.860;2022-10-16T05:32:31;13.10;99.90
21271;DHT22;10795;50.796;3.860;2022-10-16T05:34:57;13.10;99.90
21271;DHT22;10795;50.796;3.860;2022-10-16T05:37:26;13.10;99.90
21271;DHT22;10795;50.796;3.860;2022-10-16T05:39:52;13.00;99.90
21271;DHT22;10795;50.796;3.860;2022-10-16T05:42:18;12.90;99.90
21271;DHT22;10795;50.796;3.860;2022-10-16T05:44:44;13.00;99.90
21271;DHT22;10795;50.796;3.860;2022-10-16T05:47:11;13.00;99.90
21271;DHT22;10795;50.796;3.860;2022-10-16T05:49:37;13.00;99.90
21271;DHT22;10795;50.796;3.860;2022-10-16T05:52:03;13.00;99.90
21271;DHT22;10795;50.796;3.860;2022-10-16T05:54:29;12.90;99.90
21271;DHT22;10795;50.796;3.860;2022-10-16T05:56:55;13.00;99.90
21271;DHT22;10795;50.796;3.860;2022-10-16T05:59:20;13.00;99.90
21271;DHT22;10795;50.796;3.860;2022-10-16T06:01:46;13.00;99.90
21271;DHT22;10795;50.796;3.860;2022-10-16T06:04:12;13.00;99.90
21271;DHT22;10795;50.796;3.860;2022-10-16T06:06:38;13.10;99.90
21271;DHT22;10795;50.796;3.860;2022-10-16T06:09:04;13.10;99.90
21271;DHT22;10795;50.796;3.860;2022-10-16T06:11:31;13.00;99.90
21271;DHT22;10795;50.796;3.860;2022-10-16T06:14:00;13.00;99.90
21271;DHT22;10795;50.796;3.860;2022-10-16T06:16:28;13.00;99.90
21271;DHT22;10795;50.796;3.860;2022-10-16T06:18:55;13.10;99.90
21271;DHT22;10795;50.796;3.860;2022-10-16T06:21:41;13.10;99.90
21271;DHT22;10795;50.796;3.860;2022-10-16T06:24:07;13.10;99.90
21271;DHT22;10795;50.796;3.860;2022-10-16T06:26:33;13.20;99.90
21271;DHT22;10795;50.796;3.860;2022-10-16T06:28:59;13.10;99.90
21271;DHT22;10795;50.796;3.860;2022-10-16T06:31:26;13.10;99.90
21271;DHT22;10795;50.796;3.860;2022-10-16T06:33:54;13.10;99.90
21271;DHT22;10795;50.796;3.860;2022-10-16T06:36:21;13.10;99.90
21271;DHT22;10795;50.796;3.860;2022-10-16T06:38:47;13.10;99.90
21271;DHT22;10795;50.796;3.860;2022-10-16T06:41:15;13.10;99.90
21271;DHT22;10795;50.796;3.860;2022-10-16T06:43:41;13.10;99.90
21271;DHT22;10795;50.796;3.860;2022-10-16T06:46:09;13.10;99.90
21271;DHT22;10795;50.796;3.860;2022-10-16T06:48:36;13.00;99.90
21271;DHT22;10795;50.796;3.860;2022-10-16T06:51:05;13.10;99.90
21271;DHT22;10795;50.796;3.860;2022-10-16T06:53:33;13.20;99.90
21271;DHT22;10795;50.796;3.860;2022-10-16T06:56:16;13.00;99.90
21271;DHT22;10795;50.796;3.860;2022-10-16T06:58:43;13.10;99.90
21271;DHT22;10795;50.796;3.860;2022-10-16T07:01:11;13.00;99.90
21271;DHT22;10795;50.796;3.860;2022-10-16T07:03:37;13.00;99.90
21271;DHT22;10795;50.796;3.860;2022-10-16T07:06:05;13.10;99.90
21271;DHT22;10795;50.796;3.860;2022-10-16T07:08:35;13.10;99.90
21271;DHT22;10795;50.796;3.860;2022-10-16T07:11:03;13.20;99.90
21271;DHT22;10795;50.796;3.860;2022-10-16T07:13:29;13.30;99.90
21271;DHT22;10795;50.796;3.860;2022-10-16T07:15:55;13.50;99.90
21271;DHT22;10795;50.796;3.860;2022-10-16T07:18:21;13.50;99.90
21271;DHT22;10795;50.796;3.860;2022-10-16T07:20:51;13.60;99.90
21271;DHT22;10795;50.796;3.860;2022-10-16T07:23:17;13.70;99.90
21271;DHT22;10795;50.796;3.860;2022-10-16T07:25:43;13.80;99.90
21271;DHT22;10795;50.796;3.860;2022-10-16T07:28:08;13.80;99.90
21271;DHT22;10795;50.796;3.860;2022-10-16T07:30:35;14.00;99.90
21271;DHT22;10795;50.796;3.860;2022-10-16T07:33:02;14.10;99.90
21271;DHT22;10795;50.796;3.860;2022-10-16T07:35:28;14.20;99.90
21271;DHT22;10795;50.796;3.860;2022-10-16T07:37:54;14.20;99.90
21271;DHT22;10795;50.796;3.860;2022-10-16T07:40:20;14.20;99.90
21271;DHT22;10795;50.796;3.860;2022-10-16T07:42:46;14.40;99.90
21271;DHT22;10795;50.796;3.860;2022-10-16T07:45:11;14.50;99.90
21271;DHT22;10795;50.796;3.860;2022-10-16T07:47:37;14.70;99.90
21271;DHT22;10795;50.796;3.860;2022-10-16T07:50:03;15.00;99.90
21271;DHT22;10795;50.796;3.860;2022-10-16T07:52:29;15.20;99.90
21271;DHT22;10795;50.796;3.860;2022-10-16T07:54:54;15.30;99.90
21271;DHT22;10795;50.796;3.860;2022-10-16T07:57:20;15.60;99.90
21271;DHT22;10795;50.796;3.860;2022-10-16T07:59:46;15.70;99.90
21271;DHT22;10795;50.796;3.860;2022-10-16T08:02:12;15.70;99.90
21271;DHT22;10795;50.796;3.860;2022-10-16T08:04:38;15.80;99.90
21271;DHT22;10795;50.796;3.860;2022-10-16T08:07:03;15.90;99.90
21271;DHT22;10795;50.796;3.860;2022-10-16T08:09:29;16.10;99.90
21271;DHT22;10795;50.796;3.860;2022-10-16T08:11:55;16.40;99.90
21271;DHT22;10795;50.796;3.860;2022-10-16T08:14:21;16.50;99.90
21271;DHT22;10795;50.796;3.860;2022-10-16T08:16:47;16.60;99.90
21271;DHT22;10795;50.796;3.860;2022-10-16T08:19:13;16.80;99.90
21271;DHT22;10795;50.796;3.860;2022-10-16T08:21:39;17.00;99.90
21271;DHT22;10795;50.796;3.860;2022-10-16T08:24:05;17.30;99.90
21271;DHT22;10795;50.796;3.860;2022-10-16T08:26:30;17.50;99.90
21271;DHT22;10795;50.796;3.860;2022-10-16T08:28:56;17.60;99.90
21271;DHT22;10795;50.796;3.860;2022-10-16T08:31:22;17.60;99.90
21271;DHT22;10795;50.796;3.860;2022-10-16T08:33:49;17.70;99.90
21271;DHT22;10795;50.796;3.860;2022-10-16T08:36:15;17.80;99.90
21271;DHT22;10795;50.796;3.860;2022-10-16T08:38:42;18.20;99.90
21271;DHT22;10795;50.796;3.860;2022-10-16T08:47:23;18.80;99.90
21271;DHT22;10795;50.796;3.860;2022-10-16T08:49:59;19.00;99.90
21271;DHT22;10795;50.796;3.860;2022-10-16T08:52:29;18.90;99.90
21271;DHT22;10795;50.796;3.860;2022-10-16T08:54:57;19.00;99.90
21271;DHT22;10795;50.796;3.860;2022-10-16T08:57:25;19.20;99.90
21271;DHT22;10795;50.796;3.860;2022-10-16T08:59:52;19.60;99.90
21271;DHT22;10795;50.796;3.860;2022-10-16T09:02:24;19.60;99.90
21271;DHT22;10795;50.796;3.860;2022-10-16T09:14:11;19.00;99.90
21271;DHT22;10795;50.796;3.860;2022-10-16T09:18:59;18.80;99.90
21271;DHT22;10795;50.796;3.860;2022-10-16T09:21:31;19.40;99.90
21271;DHT22;10795;50.796;3.860;2022-10-16T09:24:21;19.50;99.90
21271;DHT22;10795;50.796;3.860;2022-10-16T09:26:47;19.40;99.90
21271;DHT22;10795;50.796;3.860;2022-10-16T09:29:18;19.00;99.90
21271;DHT22;10795;50.796;3.860;2022-10-16T09:31:51;19.10;99.90
21271;DHT22;10795;50.796;3.860;2022-10-16T09:34:30;19.90;99.90
21271;DHT22;10795;50.796;3.860;2022-10-16T09:36:59;19.80;99.90
21271;DHT22;10795;50.796;3.860;2022-10-16T09:39:26;20.20;99.90
21271;DHT22;10795;50.796;3.860;2022-10-16T09:41:51;19.90;99.90
21271;DHT22;10795;50.796;3.860;2022-10-16T09:44:24;19.50;99.90
21271;DHT22;10795;50.796;3.860;2022-10-16T09:47:03;19.50;99.90
21271;DHT22;10795;50.796;3.860;2022-10-16T09:49:29;20.10;99.90
21271;DHT22;10795;50.796;3.860;2022-10-16T09:52:14;20.00;99.90
21271;DHT22;10795;50.796;3.860;2022-10-16T09:54:57;20.00;99.90
21271;DHT22;10795;50.796;3.860;2022-10-16T09:57:24;20.20;99.90
21271;DHT22;10795;50.796;3.860;2022-10-16T09:59:54;20.20;99.90
21271;DHT22;10795;50.796;3.860;2022-10-16T10:02:37;20.20;99.90
21271;DHT22;10795;50.796;3.860;2022-10-16T10:05:06;20.70;99.90
21271;DHT22;10795;50.796;3.860;2022-10-16T10:07:43;21.00;99.90
21271;DHT22;10795;50.796;3.860;2022-10-16T10:10:32;21.00;99.90
21271;DHT22;10795;50.796;3.860;2022-10-16T10:12:58;20.70;99.90
21271;DHT22;10795;50.796;3.860;2022-10-16T10:15:25;20.90;99.90
21271;DHT22;10795;50.796;3.860;2022-10-16T10:17:57;21.40;99.90
21271;DHT22;10795;50.796;3.860;2022-10-16T10:22:53;21.20;99.90
21271;DHT22;10795;50.796;3.860;2022-10-16T10:39:00;21.80;99.90
21271;DHT22;10795;50.796;3.860;2022-10-16T10:50:49;22.20;99.90
21271;DHT22;10795;50.796;3.860;2022-10-16T10:53:41;21.60;99.90
21271;DHT22;10795;50.796;3.860;2022-10-16T10:56:25;22.30;99.90
21271;DHT22;10795;50.796;3.860;2022-10-16T11:02:18;22.60;99.90
21271;DHT22;10795;50.796;3.860;2022-10-16T11:10:28;22.80;99.90
21271;DHT22;10795;50.796;3.860;2022-10-16T11:13:01;23.40;99.90
21271;DHT22;10795;50.796;3.860;2022-10-16T11:15:35;22.90;99.90
21271;DHT22;10795;50.796;3.860;2022-10-16T11:18:08;23.20;99.90
21271;DHT22;10795;50.796;3.860;2022-10-16T11:23:26;22.30;99.90
21271;DHT22;10795;50.796;3.860;2022-10-16T11:25:57;23.10;99.90
21271;DHT22;10795;50.796;3.860;2022-10-16T11:28:39;23.20;99.90
21271;DHT22;10795;50.796;3.860;2022-10-16T11:31:32;23.20;99.90
21271;DHT22;10795;50.796;3.860;2022-10-16T11:34:02;22.40;99.90
21271;DHT22;10795;50.796;3.860;2022-10-16T11:36:47;22.90;99.90
21271;DHT22;10795;50.796;3.860;2022-10-16T11:41:51;21.90;99.90
21271;DHT22;10795;50.796;3.860;2022-10-16T11:44:33;22.30;99.90
21271;DHT22;10795;50.796;3.860;2022-10-16T11:49:39;21.40;99.90
21271;DHT22;10795;50.796;3.860;2022-10-16T11:55:20;21.70;99.90
21271;DHT22;10795;50.796;3.860;2022-10-16T11:57:50;22.00;99.90
21271;DHT22;10795;50.796;3.860;2022-10-16T12:00:28;20.90;99.90
21271;DHT22;10795;50.796;3.860;2022-10-16T12:03:12;22.10;99.90
21271;DHT22;10795;50.796;3.860;2022-10-16T12:05:55;22.90;99.90
21271;DHT22;10795;50.796;3.860;2022-10-16T12:08:27;23.10;99.90
21271;DHT22;10795;50.796;3.860;2022-10-16T12:10:52;23.20;99.90
21271;DHT22;10795;50.796;3.860;2022-10-16T12:13:38;23.20;99.90
21271;DHT22;10795;50.796;3.860;2022-10-16T12:16:21;22.90;99.90
21271;DHT22;10795;50.796;3.860;2022-10-16T12:18:48;22.80;99.90
21271;DHT22;10795;50.796;3.860;2022-10-16T12:21:16;23.30;99.90
21271;DHT22;10795;50.796;3.860;2022-10-16T12:23:54;23.30;99.90
21271;DHT22;10795;50.796;3.860;2022-10-16T12:26:33;22.60;99.90
21271;DHT22;10795;50.796;3.860;2022-10-16T12:29:41;22.20;99.90
21271;DHT22;10795;50.796;3.860;2022-10-16T12:32:37;22.60;99.90
21271;DHT22;10795;50.796;3.860;2022-10-16T12:35:05;22.00;99.90
21271;DHT22;10795;50.796;3.860;2022-10-16T12:37:34;21.00;99.90
21271;DHT22;10795;50.796;3.860;2022-10-16T12:40:31;20.70;99.90
21271;DHT22;10795;50.796;3.860;2022-10-16T12:42:58;21.60;99.90
21271;DHT22;10795;50.796;3.860;2022-10-16T12:45:30;21.60;99.90
21271;DHT22;10795;50.796;3.860;2022-10-16T12:47:58;21.30;99.90
21271;DHT22;10795;50.796;3.860;2022-10-16T12:50:30;21.80;99.90
21271;DHT22;10795;50.796;3.860;2022-10-16T12:52:57;20.50;99.90
21271;DHT22;10795;50.796;3.860;2022-10-16T12:55:24;20.40;99.90
21271;DHT22;10795;50.796;3.860;2022-10-16T12:58:05;20.00;99.90
21271;DHT22;10795;50.796;3.860;2022-10-16T13:00:44;20.80;99.90
21271;DHT22;10795;50.796;3.860;2022-10-16T13:06:44;21.30;99.90
21271;DHT22;10795;50.796;3.860;2022-10-16T13:12:44;20.80;99.90
21271;DHT22;10795;50.796;3.860;2022-10-16T13:20:46;19.20;99.90
21271;DHT22;10795;50.796;3.860;2022-10-16T13:23:22;19.40;99.90
21271;DHT22;10795;50.796;3.860;2022-10-16T13:28:22;19.80;99.90
21271;DHT22;10795;50.796;3.860;2022-10-16T13:30:53;19.80;99.90
21271;DHT22;10795;50.796;3.860;2022-10-16T13:35:57;19.50;99.90
21271;DHT22;10795;50.796;3.860;2022-10-16T13:38:25;20.00;99.90
21271;DHT22;10795;50.796;3.860;2022-10-16T13:40:57;20.20;99.90
21271;DHT22;10795;50.796;3.860;2022-10-16T13:43:28;20.20;99.90
21271;DHT22;10795;50.796;3.860;2022-10-16T13:46:02;20.50;99.90
21271;DHT22;10795;50.796;3.860;2022-10-16T13:48:29;20.80;99.90
21271;DHT22;10795;50.796;3.860;2022-10-16T13:51:06;20.90;99.90
21271;DHT22;10795;50.796;3.860;2022-10-16T13:53:34;20.30;99.90
21271;DHT22;10795;50.796;3.860;2022-10-16T13:56:02;20.30;99.90
21271;DHT22;10795;50.796;3.860;2022-10-16T13:58:29;20.20;99.90
21271;DHT22;10795;50.796;3.860;2022-10-16T14:01:18;19.60;99.90
21271;DHT22;10795;50.796;3.860;2022-10-16T14:03:46;20.10;99.90
21271;DHT22;10795;50.796;3.860;2022-10-16T14:06:17;20.50;99.90
21271;DHT22;10795;50.796;3.860;2022-10-16T14:08:50;20.80;99.90
21271;DHT22;10795;50.796;3.860;2022-10-16T14:11:22;20.30;99.90
21271;DHT22;10795;50.796;3.860;2022-10-16T14:13:49;20.40;99.90
21271;DHT22;10795;50.796;3.860;2022-10-16T14:16:26;19.40;99.90
21271;DHT22;10795;50.796;3.860;2022-10-16T14:19:04;20.00;99.90
21271;DHT22;10795;50.796;3.860;2022-10-16T14:21:35;20.50;99.90
21271;DHT22;10795;50.796;3.860;2022-10-16T14:24:24;20.40;99.90
21271;DHT22;10795;50.796;3.860;2022-10-16T14:26:51;19.90;99.90
21271;DHT22;10795;50.796;3.860;2022-10-16T14:29:20;19.50;99.90
21271;DHT22;10795;50.796;3.860;2022-10-16T14:32:02;19.70;99.90
21271;DHT22;10795;50.796;3.860;2022-10-16T14:34:34;19.50;99.90
21271;DHT22;10795;50.796;3.860;2022-10-16T14:37:05;19.60;99.90
21271;DHT22;10795;50.796;3.860;2022-10-16T14:39:33;19.50;99.90
21271;DHT22;10795;50.796;3.860;2022-10-16T14:41:59;19.90;99.90
21271;DHT22;10795;50.796;3.860;2022-10-16T14:44:32;20.30;99.90
21271;DHT22;10795;50.796;3.860;2022-10-16T14:47:07;20.40;99.90
21271;DHT22;10795;50.796;3.860;2022-10-16T14:49:33;20.60;99.90
21271;DHT22;10795;50.796;3.860;2022-10-16T14:51:59;20.60;99.90
21271;DHT22;10795;50.796;3.860;2022-10-16T14:54:25;20.50;99.90
21271;DHT22;10795;50.796;3.860;2022-10-16T14:56:58;20.40;99.90
21271;DHT22;10795;50.796;3.860;2022-10-16T15:01:49;19.90;99.90
21271;DHT22;10795;50.796;3.860;2022-10-16T15:04:15;19.90;99.90
21271;DHT22;10795;50.796;3.860;2022-10-16T15:06:42;19.90;99.90
21271;DHT22;10795;50.796;3.860;2022-10-16T15:09:08;19.70;99.90
21271;DHT22;10795;50.796;3.860;2022-10-16T15:11:33;19.40;99.90
21271;DHT22;10795;50.796;3.860;2022-10-16T15:13:59;19.40;99.90
21271;DHT22;10795;50.796;3.860;2022-10-16T15:16:25;19.50;99.90
21271;DHT22;10795;50.796;3.860;2022-10-16T15:18:51;19.00;99.90
21271;DHT22;10795;50.796;3.860;2022-10-16T15:23:52;19.40;99.90
21271;DHT22;10795;50.796;3.860;2022-10-16T15:26:17;19.30;99.90
21271;DHT22;10795;50.796;3.860;2022-10-16T15:28:43;19.40;99.90
21271;DHT22;10795;50.796;3.860;2022-10-16T15:31:09;19.80;99.90
21271;DHT22;10795;50.796;3.860;2022-10-16T15:33:35;20.30;99.90
21271;DHT22;10795;50.796;3.860;2022-10-16T15:36:02;20.30;99.90
21271;DHT22;10795;50.796;3.860;2022-10-16T15:38:28;19.80;99.90
21271;DHT22;10795;50.796;3.860;2022-10-16T15:40:55;19.80;99.90
21271;DHT22;10795;50.796;3.860;2022-10-16T15:43:21;19.70;99.90
21271;DHT22;10795;50.796;3.860;2022-10-16T15:46:03;19.60;99.90
21271;DHT22;10795;50.796;3.860;2022-10-16T15:48:30;19.30;99.90
21271;DHT22;10795;50.796;3.860;2022-10-16T15:50:56;19.40;99.90
21271;DHT22;10795;50.796;3.860;2022-10-16T15:53:22;19.80;99.90
21271;DHT22;10795;50.796;3.860;2022-10-16T15:55:47;20.30;99.90
21271;DHT22;10795;50.796;3.860;2022-10-16T15:58:13;20.40;99.90
21271;DHT22;10795;50.796;3.860;2022-10-16T16:00:39;20.40;99.90
21271;DHT22;10795;50.796;3.860;2022-10-16T16:03:05;20.30;99.90
21271;DHT22;10795;50.796;3.860;2022-10-16T16:05:31;20.10;99.90
21271;DHT22;10795;50.796;3.860;2022-10-16T16:07:58;19.60;99.90
21271;DHT22;10795;50.796;3.860;2022-10-16T16:10:24;19.50;99.90
21271;DHT22;10795;50.796;3.860;2022-10-16T16:12:50;19.50;99.90
21271;DHT22;10795;50.796;3.860;2022-10-16T16:15:21;19.70;99.90
21271;DHT22;10795;50.796;3.860;2022-10-16T16:17:48;20.10;99.90
21271;DHT22;10795;50.796;3.860;2022-10-16T16:20:14;20.30;99.90
21271;DHT22;10795;50.796;3.860;2022-10-16T16:22:41;20.10;99.90
21271;DHT22;10795;50.796;3.860;2022-10-16T16:25:07;19.90;99.90
21271;DHT22;10795;50.796;3.860;2022-10-16T16:27:33;19.40;99.90
21271;DHT22;10795;50.796;3.860;2022-10-16T16:30:00;18.70;99.90
21271;DHT22;10795;50.796;3.860;2022-10-16T16:32:26;18.60;99.90
21271;DHT22;10795;50.796;3.860;2022-10-16T16:34:52;18.40;99.90
21271;DHT22;10795;50.796;3.860;2022-10-16T16:37:18;18.20;99.90
21271;DHT22;10795;50.796;3.860;2022-10-16T16:39:43;18.50;99.90
21271;DHT22;10795;50.796;3.860;2022-10-16T16:42:09;18.10;99.90
21271;DHT22;10795;50.796;3.860;2022-10-16T16:44:36;18.20;99.90
21271;DHT22;10795;50.796;3.860;2022-10-16T16:47:03;18.20;99.90
21271;DHT22;10795;50.796;3.860;2022-10-16T16:49:29;18.10;99.90
21271;DHT22;10795;50.796;3.860;2022-10-16T16:51:55;18.70;99.90
21271;DHT22;10795;50.796;3.860;2022-10-16T16:54:21;18.90;99.90
21271;DHT22;10795;50.796;3.860;2022-10-16T16:56:47;18.90;99.90
21271;DHT22;10795;50.796;3.860;2022-10-16T16:59:18;18.40;99.90
21271;DHT22;10795;50.796;3.860;2022-10-16T17:01:45;18.00;99.90
21271;DHT22;10795;50.796;3.860;2022-10-16T17:04:12;17.80;99.90
21271;DHT22;10795;50.796;3.860;2022-10-16T17:06:41;17.60;99.90
21271;DHT22;10795;50.796;3.860;2022-10-16T17:09:07;17.30;99.90
21271;DHT22;10795;50.796;3.860;2022-10-16T17:11:33;17.30;99.90
21271;DHT22;10795;50.796;3.860;2022-10-16T17:14:00;17.30;99.90
21271;DHT22;10795;50.796;3.860;2022-10-16T17:16:29;17.50;99.90
21271;DHT22;10795;50.796;3.860;2022-10-16T17:18:58;17.90;99.90
21271;DHT22;10795;50.796;3.860;2022-10-16T17:21:23;17.70;99.90
21271;DHT22;10795;50.796;3.860;2022-10-16T17:23:51;17.80;99.90